Time;durP1;ratioP1;P1;durP2;ratioP2;P2;SDS_P1;SDS_P2;PMS_P1;PMS_P2;Temp;Humidity;BMP_temperature;BMP_pressure;BME280_temperature;BME280_humidity;BME280_pressure;Samples;Min_cycle;Max_cycle;Signal;HPM_P1;HPM_P2
2023/06/14 00:02:15;;;;;;;4.83;4.33;;;;;;;14.63;59.25;97634.34;5053023;28;20562;-85
2023/06/14 00:04:43;;;;;;;5.67;4.37;;;;;;;14.41;61.10;97647.91;5052817;28;20224;-84
2023/06/14 00:07:09;;;;;;;4.67;4.20;;;;;;;14.22;63.06;97649.75;5052867;28;20254;-85
2023/06/14 00:09:36;;;;;;;4.43;4.03;;;;;;;14.11;63.68;97663.16;5052023;28;20208;-84
2023/06/14 00:12:03;;;;;;;4.73;4.23;;;;;;;13.99;63.70;97659.78;5052900;28;20227;-84
2023/06/14 00:14:31;;;;;;;5.63;4.23;;;;;;;13.92;63.89;97658.66;5052950;28;20310;-84
2023/06/14 00:16:58;;;;;;;5.20;4.70;;;;;;;13.98;63.50;97646.63;5052916;28;20239;-84
2023/06/14 00:19:24;;;;;;;4.47;4.07;;;;;;;13.93;63.57;97651.53;5051989;28;20208;-84
2023/06/14 00:21:51;;;;;;;4.43;3.93;;;;;;;13.89;63.96;97650.13;5052707;28;20215;-86
2023/06/14 00:24:18;;;;;;;5.30;4.33;;;;;;;13.85;64.26;97646.03;5052708;28;20266;-86
2023/06/14 00:26:44;;;;;;;5.13;4.50;;;;;;;13.81;63.87;97639.34;5052505;28;20216;-86
2023/06/14 00:29:11;;;;;;;4.63;4.23;;;;;;;13.80;63.60;97637.66;5051837;28;20645;-84
2023/06/14 00:31:39;;;;;;;4.40;4.00;;;;;;;13.84;62.42;97634.59;5052118;28;20220;-84
2023/06/14 00:34:05;;;;;;;4.63;4.23;;;;;;;13.99;61.98;97640.34;5052396;28;20266;-85
2023/06/14 00:36:32;;;;;;;4.00;3.60;;;;;;;14.06;62.00;97633.50;5052409;28;20572;-84
2023/06/14 00:38:58;;;;;;;5.70;4.20;;;;;;;14.08;62.10;97628.88;5051638;28;20244;-84
2023/06/14 00:41:25;;;;;;;5.73;4.30;;;;;;;14.01;62.53;97625.94;5051440;28;20204;-84
2023/06/14 00:43:52;;;;;;;4.93;4.30;;;;;;;14.07;62.15;97621.88;5052226;28;20258;-86
2023/06/14 00:46:19;;;;;;;5.67;4.23;;;;;;;14.18;61.62;97621.75;5052025;28;20211;-86
2023/06/14 00:48:48;;;;;;;5.97;4.13;;;;;;;14.19;61.45;97621.63;5052032;28;20228;-84
2023/06/14 00:51:14;;;;;;;4.87;3.90;;;;;;;14.22;61.65;97629.31;5051513;28;20690;-84
2023/06/14 00:53:46;;;;;;;4.37;3.97;;;;;;;14.19;62.63;97629.59;5052224;28;20285;-86
2023/06/14 00:56:13;;;;;;;5.03;4.53;;;;;;;14.04;64.44;97640.75;5051959;28;20212;-86
2023/06/14 00:58:39;;;;;;;4.93;4.17;;;;;;;13.91;65.38;97649.00;5051194;28;20576;-85
2023/06/14 01:01:06;;;;;;;4.73;4.23;;;;;;;13.80;65.96;97642.97;5049624;28;20204;-85
2023/06/14 01:03:33;;;;;;;4.50;4.10;;;;;;;13.68;65.79;97644.09;5051795;28;20257;-86
2023/06/14 01:06:11;;;;;;;4.60;3.97;;;;;;;13.57;66.23;97647.66;5051954;28;20230;-85
2023/06/14 01:08:45;;;;;;;5.10;4.60;;;;;;;13.52;66.79;97643.75;5051896;28;20725;-85
2023/06/14 01:11:17;;;;;;;5.13;4.03;;;;;;;13.50;66.44;97641.22;5051109;28;20207;-86
2023/06/14 01:13:46;;;;;;;5.17;4.43;;;;;;;13.51;66.11;97642.09;5051603;28;20219;-86
2023/06/14 01:16:13;;;;;;;5.20;4.03;;;;;;;13.52;66.82;97646.41;5051542;28;20207;-85
2023/06/14 01:18:41;;;;;;;4.43;4.03;;;;;;;13.51;66.33;97634.13;5051490;28;20224;-85
2023/06/14 01:21:21;;;;;;;5.17;4.00;;;;;;;13.46;66.25;97645.13;5051075;28;20212;-84
2023/06/14 01:23:52;;;;;;;4.70;4.30;;;;;;;13.43;66.49;97639.25;5051601;28;20207;-84
2023/06/14 01:26:19;;;;;;;4.53;4.10;;;;;;;13.41;66.98;97646.50;5051599;28;20208;-84
2023/06/14 01:28:48;;;;;;;5.27;4.13;;;;;;;13.44;67.48;97654.22;5051380;28;20236;-85
2023/06/14 01:31:17;;;;;;;4.50;4.10;;;;;;;13.46;67.54;97649.59;5051169;28;20639;-84
2023/06/14 01:33:44;;;;;;;4.87;4.20;;;;;;;13.44;67.88;97659.53;5051427;28;20214;-85
2023/06/14 01:36:12;;;;;;;4.67;4.10;;;;;;;13.42;67.48;97653.50;5051296;28;20254;-86
2023/06/14 01:38:39;;;;;;;5.13;4.00;;;;;;;13.47;68.05;97645.97;5051517;28;20240;-84
2023/06/14 01:41:07;;;;;;;5.13;4.50;;;;;;;13.52;68.55;97649.06;5050653;28;20705;-86
2023/06/14 01:43:35;;;;;;;4.53;4.10;;;;;;;13.49;68.73;97655.47;5051421;28;20208;-85
2023/06/14 01:46:03;;;;;;;4.53;3.80;;;;;;;13.42;69.45;97645.53;5051222;28;20710;-85
2023/06/14 01:48:30;;;;;;;4.50;4.10;;;;;;;13.35;68.77;97642.59;5051299;28;20331;-85
2023/06/14 01:50:56;;;;;;;4.67;4.27;;;;;;;13.28;69.94;97651.22;5051171;28;20211;-85
2023/06/14 01:53:23;;;;;;;4.57;4.17;;;;;;;13.19;69.58;97649.34;5055281;28;20215;-85
2023/06/14 01:55:49;;;;;;;4.83;4.27;;;;;;;13.13;69.70;97653.41;5055526;28;20212;-84
2023/06/14 01:58:17;;;;;;;4.80;4.30;;;;;;;13.09;69.61;97651.16;5055334;28;20227;-85
2023/06/14 02:00:45;;;;;;;5.67;4.30;;;;;;;13.04;68.61;97643.59;5054703;28;20212;-85
2023/06/14 02:03:12;;;;;;;5.63;4.10;;;;;;;13.03;69.29;97646.38;5055279;28;20204;-84
2023/06/14 02:05:39;;;;;;;4.97;4.47;;;;;;;13.05;70.26;97649.72;5055185;28;20224;-85
2023/06/14 02:08:06;;;;;;;4.80;4.30;;;;;;;13.04;71.89;97666.63;5055047;28;20252;-84
2023/06/14 02:10:32;;;;;;;6.77;4.17;;;;;;;13.01;71.77;97658.94;5054502;28;20215;-84
2023/06/14 02:12:59;;;;;;;5.93;4.30;;;;;;;13.01;71.32;97653.63;5055356;28;20212;-85
2023/06/14 02:15:33;;;;;;;4.67;3.87;;;;;;;12.97;70.35;97652.22;5055205;28;20211;-84
2023/06/14 02:18:00;;;;;;;5.17;4.60;;;;;;;12.87;70.80;97651.28;5055036;28;20662;-84
2023/06/14 02:20:27;;;;;;;6.17;4.20;;;;;;;12.81;71.12;97647.34;5054238;28;20212;-84
2023/06/14 02:22:53;;;;;;;5.63;4.20;;;;;;;12.85;70.47;97646.09;5055011;28;20238;-84
2023/06/14 02:25:20;;;;;;;4.20;3.80;;;;;;;12.87;70.67;97646.81;5055016;28;20236;-84
2023/06/14 02:27:46;;;;;;;5.07;4.50;;;;;;;12.85;70.90;97654.06;5054926;28;20235;-84
2023/06/14 02:30:15;;;;;;;5.23;4.37;;;;;;;12.95;71.39;97648.81;5054069;28;20215;-84
2023/06/14 02:32:43;;;;;;;5.47;4.50;;;;;;;12.99;71.78;97650.25;5054964;28;20211;-83
2023/06/14 02:35:10;;;;;;;5.13;4.63;;;;;;;12.95;70.45;97643.53;5060030;28;20200;-81
2023/06/14 02:37:36;;;;;;;6.03;4.40;;;;;;;13.00;70.66;97649.28;5082196;22;20231;-81
2023/06/14 02:40:04;;;;;;;4.80;4.30;;;;;;;13.04;69.82;97648.06;5073707;28;20215;-82
2023/06/14 02:42:31;;;;;;;5.80;4.43;;;;;;;13.08;69.37;97645.00;5074229;28;20203;-81
2023/06/14 02:44:57;;;;;;;5.13;4.60;;;;;;;13.10;69.59;97647.53;5074222;28;20242;-82
2023/06/14 02:47:24;;;;;;;5.07;4.57;;;;;;;13.15;69.62;97645.31;5074139;28;20235;-81
2023/06/14 02:49:52;;;;;;;5.87;4.67;;;;;;;13.20;69.09;97643.09;5073057;28;20306;-81
2023/06/14 02:52:20;;;;;;;5.03;4.20;;;;;;;13.24;68.26;97641.84;5073721;28;20208;-81
2023/06/14 02:54:47;;;;;;;6.13;4.67;;;;;;;13.28;67.84;97640.59;5073915;28;20276;-81
2023/06/14 02:57:13;;;;;;;5.60;4.60;;;;;;;13.29;68.25;97642.28;5073700;28;20215;-81
2023/06/14 02:59:40;;;;;;;5.87;4.27;;;;;;;13.25;68.28;97646.16;5072986;28;20586;-81
2023/06/14 03:02:06;;;;;;;5.30;4.60;;;;;;;13.23;68.81;97645.47;5073275;28;20211;-81
2023/06/14 03:04:36;;;;;;;5.17;4.40;;;;;;;13.18;69.01;97651.19;5073675;28;20674;-81
2023/06/14 03:07:09;;;;;;;6.77;4.90;;;;;;;13.14;69.27;97648.94;5073868;28;20208;-81
2023/06/14 03:09:36;;;;;;;5.73;5.10;;;;;;;13.17;69.03;97652.16;5073011;28;20218;-82
2023/06/14 03:12:02;;;;;;;5.53;4.83;;;;;;;13.17;68.53;97649.50;5073538;28;20211;-82
2023/06/14 03:14:31;;;;;;;7.53;4.43;;;;;;;13.22;69.29;97657.91;5074118;28;20211;-81
2023/06/14 03:16:58;;;;;;;4.80;4.40;;;;;;;13.27;71.18;97665.47;5073639;28;20584;-82
2023/06/14 03:19:25;;;;;;;5.83;4.97;;;;;;;13.21;71.59;97672.13;5073097;28;20235;-81
2023/06/14 03:21:52;;;;;;;6.33;4.90;;;;;;;13.14;72.63;97680.78;5073182;28;20693;-81
2023/06/14 03:24:20;;;;;;;5.17;4.60;;;;;;;13.03;73.44;97672.91;5073517;28;20217;-81
2023/06/14 03:26:47;;;;;;;6.27;4.63;;;;;;;12.91;73.84;97676.56;5073246;28;20214;-81
2023/06/14 03:29:13;;;;;;;5.57;4.97;;;;;;;12.74;73.70;97677.16;5072468;28;20228;-81
2023/06/14 03:31:57;;;;;;;5.57;4.73;;;;;;;12.61;74.01;97679.19;5072996;28;20666;-81
2023/06/14 03:34:24;;;;;;;6.70;4.80;;;;;;;12.54;74.40;97670.06;5073214;28;20257;-81
2023/06/14 03:36:50;;;;;;;6.63;5.20;;;;;;;12.45;74.49;97676.97;5073163;28;20218;-81
2023/06/14 03:39:17;;;;;;;4.93;4.43;;;;;;;12.38;74.72;97677.59;5072083;28;20282;-81
2023/06/14 03:41:45;;;;;;;6.20;4.90;;;;;;;12.32;75.29;97686.06;5072785;28;20203;-81
2023/06/14 03:44:11;;;;;;;6.47;4.93;;;;;;;12.25;76.03;97687.53;5073219;28;20231;-81
2023/06/14 03:46:37;;;;;;;5.53;4.63;;;;;;;12.19;77.02;97696.84;5072771;28;20227;-81
2023/06/14 03:49:04;;;;;;;5.10;4.60;;;;;;;12.18;77.04;97694.31;5072482;28;20238;-81
2023/06/14 03:51:30;;;;;;;5.33;4.30;;;;;;;12.18;76.92;97694.31;5072180;28;20214;-81
2023/06/14 03:53:57;;;;;;;5.00;4.50;;;;;;;12.20;77.59;97703.84;5072557;28;20302;-81
2023/06/14 03:56:23;;;;;;;7.20;4.97;;;;;;;12.26;77.25;97694.53;5072687;28;20199;-81
2023/06/14 03:58:51;;;;;;;6.10;5.37;;;;;;;12.39;76.99;97705.78;5072494;28;20317;-81
2023/06/14 04:01:18;;;;;;;5.57;4.87;;;;;;;12.54;76.28;97701.88;5072145;28;20231;-82
2023/06/14 04:03:44;;;;;;;7.20;5.47;;;;;;;12.67;74.18;97697.22;5072442;28;20231;-81
2023/06/14 04:06:11;;;;;;;8.80;5.80;;;;;;;12.75;74.12;97702.72;5072270;28;20257;-81
2023/06/14 04:08:39;;;;;;;7.47;5.20;;;;;;;12.83;74.20;97697.63;5072798;28;20232;-81
2023/06/14 04:11:06;;;;;;;6.80;4.83;;;;;;;12.89;74.13;97708.53;5071503;28;20562;-81
2023/06/14 04:13:34;;;;;;;7.90;5.20;;;;;;;12.97;73.34;97692.00;5071846;28;20208;-81
2023/06/14 04:16:02;;;;;;;6.63;5.00;;;;;;;13.06;73.38;97704.47;5072209;28;20702;-82
2023/06/14 04:18:29;;;;;;;6.07;4.60;;;;;;;13.07;73.41;97703.50;5072205;28;20355;-82
2023/06/14 04:20:56;;;;;;;6.43;4.67;;;;;;;13.17;73.11;97707.03;5071444;28;20248;-82
2023/06/14 04:23:28;;;;;;;5.77;4.90;;;;;;;13.29;72.91;97708.63;5072312;28;20230;-82
2023/06/14 04:25:54;;;;;;;6.73;5.03;;;;;;;13.40;72.65;97709.41;5072737;28;20227;-81
2023/06/14 04:28:26;;;;;;;5.80;4.83;;;;;;;13.46;71.99;97715.97;5072677;28;20648;-82
2023/06/14 04:30:53;;;;;;;5.50;5.00;;;;;;;13.56;72.12;97714.22;5072069;28;20207;-81
2023/06/14 04:33:22;;;;;;;6.47;4.90;;;;;;;13.67;72.31;97716.75;5072538;28;20207;-81
2023/06/14 04:35:53;;;;;;;5.73;5.17;;;;;;;13.75;72.29;97711.63;5072336;28;20207;-82
2023/06/14 04:38:23;;;;;;;7.50;5.67;;;;;;;13.84;70.92;97713.44;5072134;28;20239;-82
2023/06/14 04:40:52;;;;;;;6.77;5.10;;;;;;;13.93;69.82;97723.25;5071082;28;20204;-82
2023/06/14 04:43:25;;;;;;;6.70;5.50;;;;;;;14.03;69.26;97716.13;5072005;28;20203;-82
2023/06/14 04:45:54;;;;;;;8.77;6.03;;;;;;;14.09;68.11;97707.63;5071930;28;20297;-82
2023/06/14 04:48:22;;;;;;;7.70;6.03;;;;;;;14.24;67.03;97711.59;5071642;28;20705;-82
2023/06/14 04:50:52;;;;;;;6.50;5.77;;;;;;;14.24;66.96;97720.38;5071063;28;20218;-81
2023/06/14 04:53:22;;;;;;;9.43;5.90;;;;;;;14.16;68.05;97719.38;5072003;28;20218;-82
2023/06/14 04:55:50;;;;;;;6.00;5.40;;;;;;;14.20;71.65;97755.38;5071725;28;20207;-82
2023/06/14 04:58:16;;;;;;;7.47;5.73;;;;;;;14.41;74.82;97770.22;5071846;28;20297;-82
2023/06/14 05:00:43;;;;;;;8.30;6.80;;;;;;;14.70;74.08;97762.25;5071054;28;20222;-82
2023/06/14 05:03:12;;;;;;;7.37;6.23;;;;;;;14.95;74.41;97765.19;5071612;28;20211;-82
2023/06/14 05:05:41;;;;;;;6.70;5.50;;;;;;;15.44;72.15;97764.13;5071448;28;20720;-82
2023/06/14 05:08:07;;;;;;;5.80;5.20;;;;;;;16.09;69.34;97747.00;5071821;28;20253;-82
2023/06/14 05:10:34;;;;;;;6.93;5.77;;;;;;;16.77;66.31;97733.06;5070779;28;20210;-82
2023/06/14 05:13:01;;;;;;;6.53;5.80;;;;;;;17.36;60.43;97701.13;5071606;28;20333;-82
2023/06/14 05:15:28;;;;;;;5.87;5.20;;;;;;;17.85;56.50;97673.66;5071722;28;20203;-82
2023/06/14 05:17:55;;;;;;;8.10;6.00;;;;;;;18.38;55.90;97681.34;5072064;28;20779;-82
2023/06/14 05:20:24;;;;;;;10.63;6.23;;;;;;;18.71;56.79;97691.91;5071320;28;20200;-82
2023/06/14 05:22:53;;;;;;;7.00;5.30;;;;;;;19.12;55.95;97690.88;5071849;28;20207;-82
2023/06/14 05:25:19;;;;;;;7.43;5.93;;;;;;;19.44;56.45;97701.56;5071672;28;20238;-82
2023/06/14 05:27:46;;;;;;;6.53;5.67;;;;;;;19.85;55.08;97696.91;5071353;28;20540;-82
2023/06/14 05:30:14;;;;;;;7.13;5.70;;;;;;;20.04;52.45;97686.59;5070937;28;20211;-81
2023/06/14 05:32:40;;;;;;;6.30;5.70;;;;;;;20.21;52.52;97685.53;5071269;28;20229;-82
2023/06/14 05:35:07;;;;;;;8.27;5.77;;;;;;;20.47;52.00;97682.53;5071463;28;20214;-82
2023/06/14 05:37:34;;;;;;;6.80;5.93;;;;;;;20.63;50.60;97672.50;5071265;28;20238;-82
2023/06/14 05:40:04;;;;;;;6.83;5.47;;;;;;;20.84;49.32;97659.22;5070526;28;20211;-81
2023/06/14 05:42:30;;;;;;;5.83;5.23;;;;;;;20.89;45.73;97656.88;5070965;28;20282;-82
2023/06/14 05:44:57;;;;;;;5.47;4.90;;;;;;;21.07;45.14;97659.22;5071475;28;20569;-82
2023/06/14 05:47:23;;;;;;;6.00;5.10;;;;;;;21.26;44.57;97667.59;5071324;28;20235;-82
2023/06/14 05:49:50;;;;;;;5.97;5.07;;;;;;;21.39;44.29;97662.41;5070638;28;20212;-82
2023/06/14 05:52:16;;;;;;;5.03;4.60;;;;;;;21.39;43.77;97662.41;5071348;28;20214;-82
2023/06/14 05:54:46;;;;;;;4.93;4.43;;;;;;;21.70;43.79;97656.91;5071323;28;20242;-82
2023/06/14 05:57:14;;;;;;;5.00;4.50;;;;;;;21.91;43.48;97660.50;5070987;28;20207;-82
2023/06/14 05:59:41;;;;;;;6.57;5.00;;;;;;;22.19;42.85;97663.31;5070372;28;20764;-82
2023/06/14 06:02:07;;;;;;;5.80;5.20;;;;;;;22.39;42.51;97662.53;5071258;28;20207;-87
2023/06/14 06:04:33;;;;;;;5.47;4.93;;;;;;;22.48;42.16;97652.47;5071435;28;20214;-84
2023/06/14 06:07:00;;;;;;;5.50;4.63;;;;;;;22.38;41.88;97652.75;5071255;28;20231;-84
2023/06/14 06:09:27;;;;;;;8.07;5.13;;;;;;;22.43;43.09;97669.22;5070359;28;20216;-89
2023/06/14 06:11:53;;;;;;;6.93;4.80;;;;;;;22.64;43.83;97677.31;5071247;28;20287;-88
2023/06/14 06:14:21;;;;;;;6.43;4.93;;;;;;;22.73;42.67;97668.06;5071274;28;20215;-87
2023/06/14 06:16:48;;;;;;;6.17;4.70;;;;;;;22.93;43.33;97682.56;5071149;28;20210;-87
2023/06/14 06:19:14;;;;;;;6.23;5.00;;;;;;;23.03;41.45;97664.19;5070106;28;20232;-87
2023/06/14 06:21:41;;;;;;;5.83;4.83;;;;;;;23.12;42.20;97676.53;5070697;28;20647;-87
2023/06/14 06:24:07;;;;;;;5.77;4.30;;;;;;;23.13;41.23;97670.09;5070668;28;20309;-88
2023/06/14 06:26:34;;;;;;;5.53;4.80;;;;;;;23.18;40.82;97667.69;5070734;28;20249;-87
2023/06/14 06:29:01;;;;;;;5.50;4.77;;;;;;;23.23;41.01;97670.59;5070634;28;20232;-88
2023/06/14 06:31:29;;;;;;;6.47;4.67;;;;;;;23.45;40.68;97674.94;5070492;28;20265;-88
2023/06/14 06:33:56;;;;;;;5.30;4.80;;;;;;;23.62;40.99;97680.84;5070758;28;20298;-88
2023/06/14 06:36:22;;;;;;;6.23;4.83;;;;;;;23.87;41.02;97680.19;5070849;28;20666;-87
2023/06/14 06:38:49;;;;;;;5.60;4.60;;;;;;;24.06;40.60;97682.16;5076509;28;20249;-89
2023/06/14 06:41:16;;;;;;;5.57;4.53;;;;;;;24.06;39.83;97674.06;5079873;28;20207;-87
2023/06/14 06:43:42;;;;;;;6.07;5.03;;;;;;;23.92;40.19;97680.44;5074432;28;20214;-88
2023/06/14 06:46:09;;;;;;;5.20;4.70;;;;;;;23.63;40.05;97682.50;5074011;28;20235;-87
2023/06/14 06:48:37;;;;;;;7.40;5.27;;;;;;;23.27;40.89;97682.69;5073892;28;20227;-88
2023/06/14 06:51:03;;;;;;;5.20;4.70;;;;;;;23.11;41.47;97696.41;5072871;28;20211;-88
2023/06/14 06:53:30;;;;;;;5.93;5.43;;;;;;;22.97;41.50;97697.31;5074068;28;20203;-87
2023/06/14 06:55:56;;;;;;;5.23;4.73;;;;;;;23.03;42.09;97707.31;5073564;28;20673;-88
2023/06/14 06:58:23;;;;;;;6.43;5.33;;;;;;;23.16;41.95;97712.88;5073603;28;20232;-88
2023/06/14 07:00:49;;;;;;;6.77;4.83;;;;;;;23.32;41.28;97707.19;5073191;28;20209;-87
2023/06/14 07:03:16;;;;;;;6.67;4.57;;;;;;;23.37;41.34;97715.53;5073967;28;20211;-88
2023/06/14 07:05:44;;;;;;;5.00;4.50;;;;;;;23.48;40.77;97711.47;5073636;28;20214;-88
2023/06/14 07:08:13;;;;;;;6.67;4.77;;;;;;;23.25;41.87;97724.34;5073336;28;20239;-84
2023/06/14 07:10:39;;;;;;;5.67;4.63;;;;;;;22.97;42.55;97726.97;5072882;28;20213;-87
2023/06/14 07:13:06;;;;;;;5.57;4.93;;;;;;;22.47;44.45;97753.16;5073565;28;20230;-87
2023/06/14 07:15:33;;;;;;;5.27;4.40;;;;;;;21.97;43.76;97724.34;5073360;28;20215;-88
2023/06/14 07:18:00;;;;;;;5.80;5.17;;;;;;;21.43;45.69;97747.09;5073728;28;20228;-88
2023/06/14 07:20:26;;;;;;;5.63;5.03;;;;;;;21.00;45.71;97749.63;5073124;28;20234;-88
2023/06/14 07:22:54;;;;;;;6.53;5.37;;;;;;;20.61;46.44;97752.38;5073426;28;20714;-88
2023/06/14 07:25:22;;;;;;;8.17;5.27;;;;;;;20.32;47.59;97765.66;5073440;28;20211;-81
2023/06/14 07:27:48;;;;;;;7.10;5.75;;;;;;;20.43;48.90;97777.84;5072223;28;20446;-85
2023/06/14 07:30:15;;;;;;;6.27;4.70;;;;;;;20.34;47.90;97770.84;5072399;28;20700;-82
2023/06/14 07:32:41;;;;;;;7.40;5.53;;;;;;;20.27;48.58;97778.78;5073171;28;20219;-83
2023/06/14 07:35:09;;;;;;;6.33;5.10;;;;;;;20.14;48.78;97783.00;5073234;28;20592;-82
2023/06/14 07:37:36;;;;;;;5.80;5.20;;;;;;;20.20;49.42;97793.91;5073228;28;20242;-81
2023/06/14 07:40:06;;;;;;;6.67;5.80;;;;;;;20.36;49.20;97799.19;5072317;28;20764;-82
2023/06/14 07:42:34;;;;;;;7.73;6.00;;;;;;;20.19;47.47;97776.09;5073352;28;20234;-82
2023/06/14 07:45:00;;;;;;;7.97;5.37;;;;;;;20.17;48.89;97788.88;5073113;28;20207;-77
2023/06/14 07:47:27;;;;;;;6.80;5.40;;;;;;;20.31;48.73;97787.31;5072897;28;20234;-77
2023/06/14 07:49:53;;;;;;;7.25;5.18;;;;;;;20.22;49.54;97791.88;5069384;28;20769;-79
2023/06/14 07:52:20;;;;;;;6.37;5.27;;;;;;;20.35;50.37;97802.88;5070098;28;20212;-78
2023/06/14 07:54:46;;;;;;;6.57;5.37;;;;;;;20.53;47.63;97773.94;5072052;28;20230;-78
2023/06/14 07:57:14;;;;;;;7.63;5.70;;;;;;;20.59;47.71;97783.13;5071736;28;20203;-83
2023/06/14 07:59:41;;;;;;;5.20;4.70;;;;;;;20.58;48.38;97784.13;5070126;28;20250;-83
2023/06/14 08:02:07;;;;;;;6.97;5.07;;;;;;;20.59;47.79;97777.75;5071162;28;20233;-84
2023/06/14 08:04:34;;;;;;;6.10;5.00;;;;;;;20.73;46.99;97777.84;5071524;28;20207;-83
2023/06/14 08:07:01;;;;;;;8.77;5.20;;;;;;;20.57;46.85;97763.66;5070817;28;20231;-83
2023/06/14 08:09:29;;;;;;;4.87;4.43;;;;;;;20.58;47.06;97762.66;5071153;28;20207;-84
2023/06/14 08:11:56;;;;;;;5.90;4.90;;;;;;;20.83;46.77;97778.44;5071225;28;20211;-81
2023/06/14 08:14:24;;;;;;;5.40;4.83;;;;;;;20.85;47.50;97779.09;5070810;28;20234;-80
2023/06/14 08:16:53;;;;;;;5.30;4.47;;;;;;;21.06;48.79;97790.06;5071401;28;20207;-81
2023/06/14 08:19:26;;;;;;;6.37;5.17;;;;;;;21.22;47.03;97781.03;5070741;28;20223;-80
2023/06/14 08:21:54;;;;;;;7.83;5.10;;;;;;;21.20;47.60;97780.38;5070768;28;20227;-80
2023/06/14 08:24:24;;;;;;;8.20;4.90;;;;;;;21.26;46.09;97771.59;5071446;28;20211;-80
2023/06/14 08:26:50;;;;;;;6.43;5.00;;;;;;;21.30;48.07;97791.72;5071157;28;20227;-80
2023/06/14 08:29:17;;;;;;;11.40;5.57;;;;;;;21.36;48.02;97789.16;5069702;28;20227;-80
2023/06/14 08:31:45;;;;;;;8.20;5.33;;;;;;;21.39;48.76;97804.09;5071179;28;20215;-80
2023/06/14 08:34:11;;;;;;;7.60;5.40;;;;;;;21.45;48.57;97798.00;5070914;28;20219;-80
2023/06/14 08:36:38;;;;;;;8.00;5.97;;;;;;;21.52;47.03;97786.31;5070929;28;20214;-80
2023/06/14 08:39:05;;;;;;;6.30;5.50;;;;;;;21.62;47.61;97789.59;5072752;22;20258;-77
2023/06/14 08:41:32;;;;;;;6.40;5.10;;;;;;;21.82;47.12;97792.63;5050004;28;20210;-77
2023/06/14 08:43:58;;;;;;;5.90;5.07;;;;;;;21.77;45.28;97765.44;5051527;28;20294;-77
2023/06/14 08:46:27;;;;;;;6.63;5.37;;;;;;;21.78;44.67;97767.09;5051733;28;20238;-77
2023/06/14 08:48:56;;;;;;;8.60;5.30;;;;;;;21.75;45.45;97773.69;5051539;28;20235;-78
2023/06/14 08:51:26;;;;;;;7.37;5.33;;;;;;;21.83;45.20;97778.16;5050816;28;20208;-78
2023/06/14 08:53:57;;;;;;;7.83;5.43;;;;;;;21.89;44.96;97774.72;5051322;28;20212;-78
2023/06/14 08:56:26;;;;;;;6.60;5.00;;;;;;;21.90;46.23;97793.38;5051250;28;20667;-75
2023/06/14 08:58:52;;;;;;;5.57;5.07;;;;;;;22.03;47.76;97804.31;5051112;28;20228;-76
2023/06/14 09:01:19;;;;;;;7.63;4.73;;;;;;;22.10;47.47;97799.88;5049824;28;20219;-77
2023/06/14 09:03:48;;;;;;;8.57;5.67;;;;;;;22.28;45.57;97789.56;5051227;28;20208;-77
2023/06/14 09:06:16;;;;;;;6.97;5.07;;;;;;;22.27;45.45;97776.28;5051181;28;20760;-76
2023/06/14 09:08:44;;;;;;;8.47;5.40;;;;;;;22.31;44.46;97774.88;5051046;28;20228;-77
2023/06/14 09:11:12;;;;;;;8.40;5.10;;;;;;;22.42;44.75;97775.22;5050918;28;20212;-76
2023/06/14 09:13:39;;;;;;;6.13;5.53;;;;;;;22.39;45.06;97781.00;5050122;28;20427;-75
2023/06/14 09:16:06;;;;;;;5.60;5.10;;;;;;;22.61;43.84;97766.59;5051098;28;20442;-76
2023/06/14 09:18:37;;;;;;;6.13;5.37;;;;;;;22.68;43.84;97772.06;5051012;28;20228;-77
2023/06/14 09:21:04;;;;;;;7.38;5.40;;;;;;;22.74;45.13;97787.47;5050258;28;20489;-75
2023/06/14 09:23:35;;;;;;;8.63;5.20;;;;;;;22.76;45.44;97796.19;5050836;28;20204;-76
2023/06/14 09:26:02;;;;;;;6.63;5.23;;;;;;;22.76;44.25;97775.47;5051114;28;20218;-76
2023/06/14 09:28:28;;;;;;;5.53;4.83;;;;;;;22.81;45.38;97786.50;5050764;28;20232;-75
2023/06/14 09:30:55;;;;;;;6.73;5.17;;;;;;;23.10;44.43;97783.69;5050049;28;20215;-74
2023/06/14 09:33:22;;;;;;;7.10;5.20;;;;;;;23.28;44.33;97796.78;5050818;28;20212;-74
2023/06/14 09:35:52;;;;;;;6.57;5.10;;;;;;;23.36;42.79;97772.38;5050782;28;20212;-77
2023/06/14 09:38:18;;;;;;;7.80;5.27;;;;;;;23.33;42.78;97773.59;5050527;28;20232;-76
2023/06/14 09:40:46;;;;;;;7.97;5.47;;;;;;;23.13;42.25;97767.16;5050190;28;20678;-76
2023/06/14 09:43:13;;;;;;;5.37;4.87;;;;;;;23.29;43.73;97787.66;5050797;28;20227;-75
2023/06/14 09:45:40;;;;;;;5.47;4.83;;;;;;;23.54;43.90;97787.03;5050676;28;20208;-77
2023/06/14 09:48:08;;;;;;;6.27;4.97;;;;;;;23.86;44.01;97791.03;5050659;28;20232;-76
2023/06/14 09:50:34;;;;;;;5.07;4.30;;;;;;;23.82;42.47;97774.41;5049834;28;20208;-75
2023/06/14 09:53:04;;;;;;;5.63;5.13;;;;;;;23.56;43.71;97790.41;5050757;28;20219;-76
2023/06/14 09:55:35;;;;;;;5.10;4.57;;;;;;;23.37;41.17;97757.84;5050607;28;20212;-76
2023/06/14 09:58:05;;;;;;;8.03;4.80;;;;;;;23.40;41.86;97774.47;5050732;28;20232;-76
2023/06/14 10:00:33;;;;;;;5.50;4.23;;;;;;;23.43;40.25;97747.13;5049281;28;20211;-77
2023/06/14 10:03:04;;;;;;;5.63;4.40;;;;;;;23.69;43.09;97777.00;5050727;28;20208;-75
2023/06/14 10:05:31;;;;;;;5.47;4.57;;;;;;;23.87;42.35;97774.66;5050698;28;20204;-77
2023/06/14 10:08:04;;;;;;;5.20;4.70;;;;;;;24.01;40.54;97751.31;5050471;28;20236;-76
2023/06/14 10:10:31;;;;;;;4.60;4.20;;;;;;;24.08;37.96;97709.78;5049893;28;20239;-76
2023/06/14 10:12:58;;;;;;;5.37;4.27;;;;;;;24.26;37.03;97706.56;5052552;28;20298;-76
2023/06/14 10:15:32;;;;;;;4.60;4.10;;;;;;;24.47;39.11;97741.53;5054175;28;20204;-76
2023/06/14 10:18:08;;;;;;;4.87;4.40;;;;;;;24.67;39.62;97754.13;5054424;28;20224;-76
2023/06/14 10:20:41;;;;;;;5.07;4.57;;;;;;;24.68;39.54;97754.97;5053595;28;20211;-76
2023/06/14 10:23:13;;;;;;;5.40;4.00;;;;;;;24.39;40.10;97753.34;5054460;28;20212;-76
2023/06/14 10:25:40;;;;;;;4.57;4.17;;;;;;;24.11;39.29;97746.34;5054342;28;20207;-76
2023/06/14 10:28:17;;;;;;;5.23;4.40;;;;;;;23.79;39.73;97742.41;5054046;28;20760;-76
2023/06/14 10:31:09;;;;;;;6.70;4.33;;;;;;;23.57;39.33;97726.47;5053500;28;20279;-76
2023/06/14 10:33:37;;;;;;;5.20;4.37;;;;;;;23.53;40.43;97736.81;5054254;28;20218;-77
2023/06/14 10:36:11;;;;;;;4.60;4.20;;;;;;;23.71;38.62;97723.66;5053889;28;20208;-76
2023/06/14 10:38:39;;;;;;;5.33;4.03;;;;;;;23.84;38.83;97728.31;5053750;28;20242;-77
2023/06/14 10:41:06;;;;;;;6.60;3.93;;;;;;;24.01;37.67;97713.50;5053164;28;20212;-76
2023/06/14 10:43:33;;;;;;;5.13;4.10;;;;;;;24.13;36.93;97696.53;5054018;28;20212;-76
2023/06/14 10:46:22;;;;;;;4.70;3.60;;;;;;;24.23;35.78;97694.28;5054061;28;20203;-76
2023/06/14 10:48:49;;;;;;;5.17;3.83;;;;;;;24.41;35.41;97694.56;5053624;28;20239;-76
2023/06/14 10:51:20;;;;;;;4.43;4.00;;;;;;;24.57;36.27;97707.72;5053232;28;20212;-76
2023/06/14 10:53:47;;;;;;;4.87;4.33;;;;;;;24.74;36.38;97719.84;5054084;28;20586;-76
2023/06/14 10:56:26;;;;;;;5.03;3.67;;;;;;;24.91;39.77;97750.00;5053861;28;20216;-76
2023/06/14 10:58:52;;;;;;;4.80;4.10;;;;;;;25.12;38.14;97734.44;5053672;28;20228;-76
2023/06/14 11:01:32;;;;;;;5.27;3.83;;;;;;;25.04;35.75;97707.63;5052699;28;20212;-77
2023/06/14 11:04:08;;;;;;;6.40;4.13;;;;;;;25.08;37.90;97727.81;5053707;28;20225;-76
2023/06/14 11:06:47;;;;;;;4.97;3.53;;;;;;;25.22;37.03;97715.94;5053519;28;20219;-76
2023/06/14 11:09:37;;;;;;;4.87;3.93;;;;;;;25.22;37.03;97715.94;5052832;28;20224;-76
2023/06/14 11:12:07;;;;;;;4.47;3.60;;;;;;;25.83;35.33;97706.56;5053717;28;20197;-76
2023/06/14 11:14:33;;;;;;;3.83;3.53;;;;;;;26.03;34.91;97703.84;5053334;28;20212;-76
2023/06/14 11:17:01;;;;;;;5.82;3.90;;;;;;;26.14;35.07;97704.00;5053170;28;20216;-76
2023/06/14 11:19:28;;;;;;;3.92;3.60;;;;;;;26.05;32.74;97680.94;5052331;28;20298;-76
2023/06/14 11:21:55;;;;;;;6.97;3.88;;;;;;;25.80;32.00;97666.38;5053222;28;20214;-76
2023/06/14 11:24:21;;;;;;;6.47;3.87;;;;;;;25.82;33.01;97682.41;5052814;28;20204;-76
2023/06/14 11:26:49;;;;;;;6.47;3.70;;;;;;;25.55;32.03;97657.25;5052956;28;20208;-76
2023/06/14 11:29:16;;;;;;;5.73;3.97;;;;;;;25.48;32.05;97664.56;5052093;28;20311;-76
2023/06/14 11:31:45;;;;;;;5.07;4.25;;;;;;;25.38;32.39;97666.03;5053045;28;20236;-76
2023/06/14 11:34:16;;;;;;;4.97;4.10;;;;;;;25.47;31.82;97668.31;5052943;28;20248;-76
2023/06/14 11:36:43;;;;;;;4.20;3.70;;;;;;;25.45;31.94;97665.00;5052880;28;20244;-76
2023/06/14 11:39:09;;;;;;;4.87;3.77;;;;;;;25.31;33.69;97682.25;5052123;28;20309;-76